EPWR/WRO METAR and TAF weather

Enter ICAO airport designator
Station Type Date Time Source
EPWR METAR 2022/01/29 14:00 UTC NOAA

EPWR 291400Z 23011KT 210V270 7000 -RA FEW003 BKN023 03/02 Q1014


Station Type Date Time Source
EPWR Decoded METAR 2022/01/29 14:00 UTC NOAA

Wroclaw Ii, Poland (EPWR) 51-06N 016-53E 121M
Jan 29, 2022 - 09:00 AM EST / 2022.01.29 1400 UTC
Wind: from the SW (230 degrees) at 13 MPH (11 KT) (direction variable):0
Visibility: 4 mile(s):0
Sky conditions: mostly cloudy
Weather: light rain
Temperature: 37 F (3 C)
Dew Point: 35 F (2 C)
Relative Humidity: 93%
Pressure (altimeter): 29.94 in. Hg (1014 hPa)
ob: EPWR 291400Z 23011KT 210V270 7000 -RA FEW003 BKN023 03/02 Q1014
cycle: 14

Station Type Date Time Source
EPWR TAF 2022/01/29 12:33 UTC NOAA

TAF EPWR 291130Z 2912/3012 24015G25KT 7000 BKN015
BECMG 2912/2915 4000 -RASN BR OVC007
TEMPO 2912/2916 2000 RA BR OVC004
BECMG 2915/2918 27020G35KT
BECMG 2921/2924 27030G45KT
TEMPO 2921/3012 4000 SHRA BKN007 BKN012CB PROB40
TEMPO 3002/3009 27035G55KT 2000 SHRASN BKN004 BKN007CB

Example: see airport list